createdAt,value
2022-10-29T00:02:30.684Z,1.92
2022-10-29T00:06:12.447Z,2.20
2022-10-29T00:09:54.213Z,1.98
2022-10-29T00:13:36.184Z,1.75
2022-10-29T00:17:17.861Z,2.15
2022-10-29T00:21:05.838Z,2.30
2022-10-29T00:24:47.575Z,3.17
2022-10-29T00:28:29.339Z,3.53
2022-10-29T00:32:11.401Z,3.15
2022-10-29T00:36:07.037Z,2.25
2022-10-29T00:39:48.698Z,2.70
2022-10-29T00:44:08.151Z,2.42
2022-10-29T00:47:51.048Z,2.75
2022-10-29T00:51:33.964Z,2.67
2022-10-29T00:55:15.775Z,2.08
2022-10-29T00:58:57.746Z,2.40
2022-10-29T01:02:39.807Z,1.95
2022-10-29T01:06:22.314Z,2.45
2022-10-29T01:10:04.321Z,2.47
2022-10-29T01:13:58.630Z,2.78
2022-10-29T01:17:49.282Z,2.25
2022-10-29T01:21:39.230Z,2.25
2022-10-29T01:25:39.380Z,3.03
2022-10-29T01:29:26.809Z,2.50
2022-10-29T01:33:33.127Z,2.38
2022-10-29T01:37:22.471Z,2.15
2022-10-29T01:41:24.755Z,2.00
2022-10-29T01:45:20.140Z,2.35
2022-10-29T01:49:04.325Z,2.30
2022-10-29T01:52:46.404Z,2.50
2022-10-29T01:56:28.067Z,2.30
2022-10-29T02:00:12.103Z,1.88
2022-10-29T02:04:14.945Z,2.17
2022-10-29T02:08:14.760Z,2.38
2022-10-29T02:12:25.568Z,1.77
2022-10-29T02:16:07.588Z,1.70
2022-10-29T02:19:49.262Z,2.15
2022-10-29T02:23:32.241Z,2.15
2022-10-29T02:27:13.969Z,1.98
2022-10-29T02:30:55.837Z,1.75
2022-10-29T02:34:37.501Z,2.08
2022-10-29T02:38:19.269Z,2.67
2022-10-29T02:42:02.159Z,1.90
2022-10-29T02:45:43.844Z,1.30
2022-10-29T02:49:25.571Z,1.90
2022-10-29T02:53:08.485Z,2.33
2022-10-29T02:56:50.151Z,1.83
2022-10-29T03:00:33.005Z,2.13
2022-10-29T03:04:14.792Z,1.83
2022-10-29T03:07:56.465Z,1.55
2022-10-29T03:11:38.419Z,1.95
2022-10-29T03:15:20.100Z,1.63
2022-10-29T03:19:01.909Z,2.35
2022-10-29T03:22:43.860Z,2.25
2022-10-29T03:26:25.527Z,1.05
2022-10-29T03:30:08.158Z,1.85
2022-10-29T03:33:50.413Z,1.55
2022-10-29T03:37:32.086Z,1.52
2022-10-29T03:41:14.117Z,1.40
2022-10-29T03:44:55.783Z,1.15
2022-10-29T03:48:37.766Z,1.13
2022-10-29T03:52:20.944Z,0.98
2022-10-29T03:56:02.851Z,1.00
2022-10-29T03:59:47.115Z,0.98
2022-10-29T04:03:32.736Z,1.02
2022-10-29T04:07:14.501Z,0.97
2022-10-29T04:10:56.431Z,0.93
2022-10-29T04:14:42.874Z,0.70
2022-10-29T04:18:27.196Z,0.80
2022-10-29T04:34:00.538Z,1.00
2022-10-29T04:37:42.402Z,1.10
2022-10-29T04:41:24.351Z,1.42
2022-10-29T04:45:06.830Z,1.58
2022-10-29T04:48:48.532Z,1.20
2022-10-29T04:52:50.275Z,1.33
2022-10-29T04:56:32.016Z,1.48
2022-10-29T05:00:17.863Z,1.40
2022-10-29T05:04:01.833Z,1.90
2022-10-29T05:07:43.546Z,1.45
2022-10-29T05:11:25.433Z,2.33
2022-10-29T05:15:07.331Z,1.95
2022-10-29T05:18:49.017Z,2.58
2022-10-29T05:22:50.897Z,2.65
2022-10-29T05:26:32.705Z,2.53
2022-10-29T05:30:14.467Z,3.20
2022-10-29T05:33:58.437Z,2.58
2022-10-29T05:37:40.098Z,3.80
2022-10-29T05:41:21.965Z,4.00
2022-10-29T05:45:03.884Z,3.60
2022-10-29T05:48:45.571Z,4.05
2022-10-29T05:52:31.337Z,4.00
2022-10-29T05:56:13.055Z,3.90
2022-10-29T05:59:54.861Z,3.38
2022-10-29T06:03:38.323Z,3.55
2022-10-29T06:07:20.015Z,2.50
2022-10-29T06:11:02.891Z,3.10
2022-10-29T06:14:44.604Z,3.70
2022-10-29T06:18:27.413Z,3.20
2022-10-29T06:22:11.275Z,3.13
2022-10-29T06:25:54.114Z,4.60
2022-10-29T06:29:35.803Z,3.60
2022-10-29T06:33:18.290Z,2.53
2022-10-29T06:36:59.948Z,3.28
2022-10-29T06:40:42.346Z,3.10
2022-10-29T06:44:24.013Z,3.33
2022-10-29T06:48:06.159Z,3.10
2022-10-29T06:51:48.228Z,3.83
2022-10-29T06:55:30.092Z,3.20
2022-10-29T06:59:11.753Z,3.42
2022-10-29T07:02:54.078Z,3.67
2022-10-29T07:06:36.060Z,3.60
2022-10-29T07:10:17.794Z,3.70
2022-10-29T07:14:00.131Z,3.97
2022-10-29T07:17:42.061Z,3.70
2022-10-29T07:21:25.062Z,3.92
2022-10-29T07:25:07.395Z,4.18
2022-10-29T07:28:49.052Z,4.22
2022-10-29T07:32:31.041Z,3.75
2022-10-29T07:36:12.697Z,3.78
2022-10-29T07:39:54.659Z,3.92
2022-10-29T07:43:36.424Z,3.70
2022-10-29T07:47:18.270Z,3.00
2022-10-29T07:51:00.765Z,3.30
2022-10-29T07:54:42.434Z,3.38
2022-10-29T07:58:24.329Z,3.95
2022-10-29T08:02:09.662Z,3.53
2022-10-29T08:05:55.419Z,3.92
2022-10-29T08:09:38.280Z,3.08
2022-10-29T08:13:20.274Z,3.88
2022-10-29T08:17:02.010Z,3.28
2022-10-29T08:20:44.261Z,3.22
2022-10-29T08:24:25.932Z,3.40
2022-10-29T08:28:08.690Z,3.70
2022-10-29T08:31:50.417Z,3.00
2022-10-29T08:35:32.392Z,3.33
2022-10-29T08:39:14.056Z,3.55
2022-10-29T08:43:15.582Z,3.50
2022-10-29T08:47:23.787Z,3.50
2022-10-29T08:51:25.201Z,3.05
2022-10-29T08:55:20.910Z,6.82
2022-10-29T08:59:11.951Z,4.28
2022-10-29T09:02:57.238Z,3.90
2022-10-29T09:06:44.353Z,4.43
2022-10-29T09:10:28.858Z,4.28
2022-10-29T09:14:41.880Z,3.10
2022-10-29T09:18:50.226Z,3.70
2022-10-29T09:23:04.097Z,3.80
2022-10-29T09:27:08.139Z,3.58
2022-10-29T09:31:07.800Z,3.10
2022-10-29T09:34:50.944Z,3.70
2022-10-29T09:38:34.903Z,4.55
2022-10-29T09:42:43.436Z,4.25
2022-10-29T09:46:58.300Z,3.00
2022-10-29T09:50:46.788Z,3.22
2022-10-29T09:54:29.573Z,4.10
2022-10-29T09:58:18.725Z,3.25
2022-10-29T10:02:00.726Z,3.35
2022-10-29T10:06:04.397Z,3.28
2022-10-29T10:10:03.673Z,4.85
2022-10-29T10:13:57.663Z,4.43
2022-10-29T10:18:18.233Z,4.18
2022-10-29T10:22:04.685Z,3.70
2022-10-29T10:25:46.444Z,3.22
2022-10-29T10:29:28.322Z,2.95
2022-10-29T10:33:28.801Z,3.50
2022-10-29T10:37:10.446Z,3.42
2022-10-29T10:41:00.622Z,4.53
2022-10-29T10:44:52.222Z,3.97
2022-10-29T10:52:26.837Z,3.42
2022-10-29T10:56:16.270Z,3.00
2022-10-29T10:59:57.913Z,3.53
2022-10-29T11:03:48.367Z,3.53
2022-10-29T11:07:31.924Z,3.15
2022-10-29T11:11:13.630Z,3.25
2022-10-29T11:15:00.319Z,3.88
2022-10-29T11:18:42.815Z,3.95
2022-10-29T11:22:45.186Z,3.30
2022-10-29T11:26:41.698Z,5.90
2022-10-29T11:30:23.445Z,3.47
2022-10-29T11:34:23.784Z,3.70
2022-10-29T11:38:26.348Z,3.58
2022-10-29T11:42:10.112Z,3.55
2022-10-29T11:45:54.623Z,2.65
2022-10-29T11:49:49.813Z,3.58
2022-10-29T11:53:44.652Z,3.72
2022-10-29T11:57:29.289Z,3.28
2022-10-29T12:01:44.085Z,3.10
2022-10-29T12:05:30.461Z,3.42
2022-10-29T12:09:34.480Z,3.17
2022-10-29T12:13:39.614Z,3.60
2022-10-29T12:17:26.969Z,3.72
2022-10-29T12:21:37.668Z,3.10
2022-10-29T12:25:28.471Z,2.80
2022-10-29T12:29:31.871Z,2.80
2022-10-29T12:33:19.597Z,3.00
2022-10-29T12:37:42.554Z,2.83
2022-10-29T12:41:39.317Z,3.50
2022-10-29T12:45:48.086Z,3.53
2022-10-29T12:49:47.588Z,3.75
2022-10-29T12:54:03.222Z,4.60
2022-10-29T12:57:44.890Z,3.72
2022-10-29T13:01:50.143Z,3.70
2022-10-29T13:05:40.156Z,4.13
2022-10-29T13:09:22.583Z,4.65
2022-10-29T13:13:17.720Z,3.97
2022-10-29T13:16:59.481Z,7.32
2022-10-29T13:20:48.636Z,5.40
2022-10-29T13:24:30.449Z,4.88
2022-10-29T13:28:37.983Z,5.75
2022-10-29T13:32:35.538Z,5.38
2022-10-29T13:36:17.251Z,4.55
2022-10-29T13:40:33.783Z,4.75
2022-10-29T13:44:26.290Z,3.90
2022-10-29T13:48:13.372Z,4.40
2022-10-29T13:52:03.186Z,4.47
2022-10-29T13:55:44.846Z,4.15
2022-10-29T13:59:36.045Z,4.47
2022-10-29T14:03:25.211Z,4.25
2022-10-29T14:07:12.860Z,4.03
2022-10-29T14:11:00.707Z,4.72
2022-10-29T14:15:06.828Z,4.85
2022-10-29T14:18:49.335Z,4.15
2022-10-29T14:22:35.650Z,4.13
2022-10-29T14:26:17.394Z,4.30
2022-10-29T14:30:16.822Z,4.25
2022-10-29T14:33:59.831Z,3.72
2022-10-29T14:37:41.518Z,3.30
2022-10-29T14:41:23.522Z,3.42
2022-10-29T14:45:07.604Z,2.80
2022-10-29T14:48:56.309Z,2.58
2022-10-29T14:52:39.597Z,3.83
2022-10-29T14:56:21.318Z,3.40
2022-10-29T15:00:04.926Z,4.07
2022-10-29T15:03:48.063Z,3.58
2022-10-29T15:07:34.124Z,3.70
2022-10-29T15:11:36.995Z,2.70
2022-10-29T15:15:18.702Z,2.95
2022-10-29T15:19:00.592Z,4.95
2022-10-29T15:22:42.806Z,5.13
2022-10-29T15:26:24.549Z,2.47
2022-10-29T15:30:06.797Z,3.00
2022-10-29T15:33:52.530Z,3.33
2022-10-29T15:37:44.061Z,2.60
2022-10-29T15:41:37.352Z,3.80
2022-10-29T15:45:20.221Z,2.80
2022-10-29T15:49:01.893Z,2.42
2022-10-29T15:52:48.893Z,2.92
2022-10-29T15:56:30.553Z,2.53
2022-10-29T16:00:12.865Z,2.20
2022-10-29T16:03:54.803Z,2.58
2022-10-29T16:07:36.581Z,2.65
2022-10-29T16:11:22.365Z,2.40
2022-10-29T16:15:04.217Z,2.50
2022-10-29T16:18:46.338Z,2.38
2022-10-29T16:22:29.511Z,2.78
2022-10-29T16:26:15.426Z,2.78
2022-10-29T16:29:57.108Z,2.17
2022-10-29T16:33:40.885Z,2.85
2022-10-29T16:37:22.633Z,2.47
2022-10-29T16:41:05.557Z,2.90
2022-10-29T16:44:47.223Z,2.97
2022-10-29T16:48:28.876Z,6.38
2022-10-29T16:52:12.795Z,3.95
2022-10-29T16:55:56.831Z,3.47
2022-10-29T16:59:38.496Z,4.75
2022-10-29T17:03:21.233Z,3.63
2022-10-29T17:07:03.016Z,3.73
2022-10-29T17:10:44.825Z,4.55
2022-10-29T17:14:26.504Z,2.90
2022-10-29T17:18:08.235Z,3.35
2022-10-29T17:21:51.369Z,3.22
2022-10-29T17:25:33.032Z,3.42
2022-10-29T17:29:14.701Z,3.60
2022-10-29T17:32:57.688Z,3.88
2022-10-29T17:36:43.164Z,3.05
2022-10-29T17:40:24.850Z,6.22
2022-10-29T17:44:06.773Z,9.25
2022-10-29T17:47:48.682Z,6.90
2022-10-29T17:51:30.584Z,10.30
2022-10-29T17:55:12.266Z,5.05
2022-10-29T17:58:53.949Z,3.72
2022-10-29T18:02:37.354Z,3.63
2022-10-29T18:06:19.068Z,3.63
2022-10-29T18:10:00.756Z,4.80
2022-10-29T18:13:43.221Z,4.55
2022-10-29T18:17:25.041Z,4.78
2022-10-29T18:21:08.561Z,5.13
2022-10-29T18:24:50.237Z,3.63
2022-10-29T18:28:32.345Z,4.53
2022-10-29T18:32:15.498Z,6.03
2022-10-29T18:35:57.203Z,4.72
2022-10-29T18:39:39.138Z,6.28
2022-10-29T18:43:22.496Z,8.18
2022-10-29T18:47:04.234Z,6.25
2022-10-29T18:50:47.113Z,8.00
2022-10-29T18:54:28.789Z,9.73
2022-10-29T18:58:10.517Z,4.32
2022-10-29T19:01:52.413Z,4.35
2022-10-29T19:05:35.703Z,4.00
2022-10-29T19:09:17.389Z,3.80
2022-10-29T19:13:00.137Z,5.57
2022-10-29T19:16:41.883Z,6.67
2022-10-29T19:20:23.571Z,6.00
2022-10-29T19:24:05.949Z,6.70
2022-10-29T19:27:47.938Z,8.95
2022-10-29T19:31:31.183Z,6.07
2022-10-29T19:35:12.917Z,6.45
2022-10-29T19:38:54.835Z,6.15
2022-10-29T19:42:36.698Z,4.50
2022-10-29T19:46:22.874Z,5.05
2022-10-29T19:50:05.422Z,4.43
2022-10-29T19:54:07.997Z,7.88
2022-10-29T19:57:49.697Z,8.40
2022-10-29T20:01:31.590Z,8.20
2022-10-29T20:05:13.277Z,5.90
2022-10-29T20:08:55.021Z,6.32
2022-10-29T20:12:36.885Z,5.07
2022-10-29T20:16:19.795Z,5.15
2022-10-29T20:20:01.643Z,5.07
2022-10-29T20:23:44.684Z,4.70
2022-10-29T20:27:26.414Z,5.50
2022-10-29T20:31:18.188Z,5.10
2022-10-29T20:34:59.837Z,4.80
2022-10-29T20:38:41.705Z,3.90
2022-10-29T20:42:24.528Z,4.55
2022-10-29T20:46:06.403Z,4.13
2022-10-29T20:49:48.101Z,3.95
2022-10-29T20:53:29.958Z,4.78
2022-10-29T20:57:11.623Z,4.70
2022-10-29T21:00:54.523Z,5.20
2022-10-29T21:04:36.249Z,4.82
2022-10-29T21:08:17.984Z,4.25
2022-10-29T21:11:59.835Z,5.15
2022-10-29T21:15:41.534Z,4.93
2022-10-29T21:19:24.073Z,4.85
2022-10-29T21:23:05.920Z,4.85
2022-10-29T21:26:47.652Z,4.82
2022-10-29T21:30:29.548Z,4.03
2022-10-29T21:34:11.276Z,4.75
2022-10-29T21:37:52.935Z,3.90
2022-10-29T21:41:34.884Z,4.07
2022-10-29T21:45:16.695Z,4.00
2022-10-29T21:48:58.366Z,3.30
2022-10-29T21:52:41.189Z,3.13
2022-10-29T21:56:22.938Z,3.60
2022-10-29T22:00:06.420Z,3.85
2022-10-29T22:03:48.205Z,3.95
2022-10-29T22:07:29.893Z,3.33
2022-10-29T22:11:12.125Z,4.10
2022-10-29T22:14:53.832Z,3.50
2022-10-29T22:18:35.837Z,3.60
2022-10-29T22:22:17.746Z,4.40
2022-10-29T22:25:59.590Z,3.13
2022-10-29T22:29:41.262Z,3.63
2022-10-29T22:33:23.177Z,3.30
2022-10-29T22:37:04.892Z,3.28
2022-10-29T22:40:46.858Z,3.45
2022-10-29T22:44:28.525Z,4.20
2022-10-29T22:48:10.184Z,4.07
2022-10-29T22:51:53.851Z,3.05
2022-10-29T22:55:37.440Z,3.78
2022-10-29T22:59:19.099Z,3.13
2022-10-29T23:03:01.110Z,3.42
2022-10-29T23:06:42.873Z,3.40
2022-10-29T23:10:24.561Z,4.70
2022-10-29T23:14:06.339Z,3.55
2022-10-29T23:17:48.035Z,3.75
2022-10-29T23:21:30.129Z,3.70
2022-10-29T23:25:11.796Z,3.67
2022-10-29T23:28:53.577Z,3.42
2022-10-29T23:32:35.324Z,3.70
2022-10-29T23:36:17.602Z,3.40
2022-10-29T23:39:59.340Z,4.20
2022-10-29T23:43:41.103Z,3.35
2022-10-29T23:47:22.876Z,4.30
2022-10-29T23:51:04.831Z,4.43
2022-10-29T23:54:46.505Z,3.83
2022-10-29T23:58:28.225Z,3.85
